This is the latest recevied weather packets stored in our database for station/object KC4JIR. If no packets are shown the sender has not sent any weather packets the latest 1 day(s).
| Time | Temp. | Humidity | Pressure | Rain* | Wind** | Luminosity | Snow |
|---|---|---|---|---|---|---|---|
| 1778044189 | 16.67° C | 83% | 1012.2 hPa | 0 mm | - | 0 W/m² | - |
| 1778041767 | 17.22° C | 80% | 1012.3 hPa | 0 mm | - | 0 W/m² | - |
| 1778041466 | 17.22° C | 80% | 1012.6 hPa | 0 mm | - | 0 W/m² | - |
| 1778041163 | 17.22° C | 80% | 1012.5 hPa | 0 mm | - | 0 W/m² | - |
| 1778040861 | 17.22° C | 79% | 1012.5 hPa | 0 mm | - | 0 W/m² | - |
| 1778039951 | 17.78° C | 77% | 1012.3 hPa | 0 mm | - | 0 W/m² | - |
| 1778039346 | 17.78° C | 77% | 1012 hPa | 0 mm | - | 0 W/m² | - |
| 1778036317 | 18.89° C | 71% | 1012.6 hPa | 0 mm | - | 0 W/m² | - |
| 1778036013 | 18.89° C | 71% | 1012.8 hPa | 0 mm | - | 0 W/m² | - |
| 1778035710 | 18.89° C | 71% | 1012.9 hPa | 0 mm | - | 0 W/m² | - |
| 1778034497 | 19.44° C | 70% | 1012.2 hPa | 0 mm | - | 0 W/m² | - |
| 1778034195 | 19.44° C | 70% | 1012.5 hPa | 0 mm | - | 0 W/m² | - |
| 1778026921 | 24.44° C | 47% | 1011.9 hPa | 0 mm | - | 1 W/m² | - |
| 1778026011 | 24.44° C | 47% | 1011.4 hPa | 0 mm | - | 4 W/m² | - |
| 1778024497 | 26.11° C | 42% | 1011.3 hPa | 0 mm | - | 17 W/m² | - |
| 1778022380 | 26.67° C | 46% | 1011 hPa | 0 mm | - | 32 W/m² | - |
| 1778020560 | 28.89° C | 42% | 1010.8 hPa | 0 mm | - | 180 W/m² | - |
| 1778020256 | 28.33° C | 41% | 1011 hPa | 0 mm | - | 194 W/m² | - |
| 1778019346 | 28.89° C | 41% | 1011.1 hPa | 0 mm | - | 237 W/m² | - |
| 1778019042 | 29.44° C | 40% | 1011.3 hPa | 0 mm | - | 224 W/m² | - |
| 1778017227 | 28.89° C | 40% | 1011.4 hPa | 0 mm | - | 329 W/m² | - |
| 1778016621 | 29.44° C | 41% | 1011.5 hPa | 0 mm | - | 357 W/m² | - |
| 1778016015 | 28.89° C | 40% | 1011.6 hPa | 0 mm | - | 436 W/m² | - |
| 1778013895 | 29.44° C | 42% | 1011.3 hPa | 0 mm | - | 264 W/m² | - |
| 1778013592 | 29.44° C | 41% | 1011.4 hPa | 0 mm | - | 425 W/m² | - |
* Rain latest hour (hover to see other rain measurements)
** Current wind speed in m/s (hover to see current wind gust speed)